sensor_id;sensor_type;location;lat;lon;timestamp;pressure;altitude;pressure_sealevel;temperature;humidity
14242;BME280;7205;50.864;12.766;2023-05-01T00:00:49;97964.97;;;6.64;61.48
14242;BME280;7205;50.864;12.766;2023-05-01T00:03:16;97962.50;;;6.63;61.80
14242;BME280;7205;50.864;12.766;2023-05-01T00:05:43;97960.16;;;6.60;61.72
14242;BME280;7205;50.864;12.766;2023-05-01T00:08:10;97955.03;;;6.58;61.90
14242;BME280;7205;50.864;12.766;2023-05-01T00:10:38;97957.00;;;6.56;61.83
14242;BME280;7205;50.864;12.766;2023-05-01T00:13:05;97947.59;;;6.54;62.01
14242;BME280;7205;50.864;12.766;2023-05-01T00:15:32;97943.47;;;6.51;62.17
14242;BME280;7205;50.864;12.766;2023-05-01T00:18:00;97942.78;;;6.49;62.20
14242;BME280;7205;50.864;12.766;2023-05-01T00:20:27;97945.69;;;6.46;62.62
14242;BME280;7205;50.864;12.766;2023-05-01T00:22:55;97938.78;;;6.45;62.60
14242;BME280;7205;50.864;12.766;2023-05-01T00:25:22;97937.16;;;6.44;62.46
14242;BME280;7205;50.864;12.766;2023-05-01T00:27:49;97933.97;;;6.41;62.91
14242;BME280;7205;50.864;12.766;2023-05-01T00:30:16;97929.81;;;6.38;62.98
14242;BME280;7205;50.864;12.766;2023-05-01T00:32:43;97932.44;;;6.38;63.02
14242;BME280;7205;50.864;12.766;2023-05-01T00:35:12;97928.19;;;6.37;63.62
14242;BME280;7205;50.864;12.766;2023-05-01T00:37:39;97927.34;;;6.36;63.56
14242;BME280;7205;50.864;12.766;2023-05-01T00:40:07;97930.66;;;6.38;63.67
14242;BME280;7205;50.864;12.766;2023-05-01T00:42:37;97931.50;;;6.39;63.97
14242;BME280;7205;50.864;12.766;2023-05-01T00:45:08;97922.78;;;6.38;64.05
14242;BME280;7205;50.864;12.766;2023-05-01T00:47:37;97922.78;;;6.38;63.62
14242;BME280;7205;50.864;12.766;2023-05-01T00:50:08;97921.00;;;6.39;63.74
14242;BME280;7205;50.864;12.766;2023-05-01T00:52:37;97921.97;;;6.38;63.88
14242;BME280;7205;50.864;12.766;2023-05-01T00:55:05;97910.66;;;6.38;63.91
14242;BME280;7205;50.864;12.766;2023-05-01T00:57:32;97908.03;;;6.38;63.63
14242;BME280;7205;50.864;12.766;2023-05-01T01:00:01;97902.94;;;6.36;63.96
14242;BME280;7205;50.864;12.766;2023-05-01T01:02:28;97907.34;;;6.35;63.88
14242;BME280;7205;50.864;12.766;2023-05-01T01:04:56;97905.56;;;6.36;63.96
14242;BME280;7205;50.864;12.766;2023-05-01T01:07:31;97902.09;;;6.35;64.08
14242;BME280;7205;50.864;12.766;2023-05-01T01:10:07;97894.38;;;6.34;63.86
14242;BME280;7205;50.864;12.766;2023-05-01T01:12:42;97891.91;;;6.32;63.98
14242;BME280;7205;50.864;12.766;2023-05-01T01:15:19;97890.25;;;6.31;64.13
14242;BME280;7205;50.864;12.766;2023-05-01T01:17:53;97893.00;;;6.30;64.08
14242;BME280;7205;50.864;12.766;2023-05-01T01:20:30;97883.63;;;6.27;64.42
14242;BME280;7205;50.864;12.766;2023-05-01T01:26:10;97879.63;;;6.23;64.80
14242;BME280;7205;50.864;12.766;2023-05-01T01:29:02;97878.16;;;6.21;64.54
14242;BME280;7205;50.864;12.766;2023-05-01T01:31:32;97875.78;;;6.18;64.46
14242;BME280;7205;50.864;12.766;2023-05-01T01:34:12;97889.88;;;6.17;64.55
14242;BME280;7205;50.864;12.766;2023-05-01T01:36:48;97882.16;;;6.15;64.96
14242;BME280;7205;50.864;12.766;2023-05-01T01:39:26;97879.69;;;6.14;64.75
14242;BME280;7205;50.864;12.766;2023-05-01T01:41:59;97878.00;;;6.13;64.82
14242;BME280;7205;50.864;12.766;2023-05-01T01:44:32;97882.44;;;6.12;65.01
14242;BME280;7205;50.864;12.766;2023-05-01T01:47:02;97876.34;;;6.12;65.42
14242;BME280;7205;50.864;12.766;2023-05-01T01:49:36;97868.78;;;6.09;65.24
14242;BME280;7205;50.864;12.766;2023-05-01T01:52:04;97872.34;;;6.08;65.11
14242;BME280;7205;50.864;12.766;2023-05-01T01:54:37;97876.78;;;6.07;65.31
14242;BME280;7205;50.864;12.766;2023-05-01T01:57:06;97871.69;;;6.06;65.38
14242;BME280;7205;50.864;12.766;2023-05-01T01:59:34;97870.03;;;6.05;65.33
14242;BME280;7205;50.864;12.766;2023-05-01T02:02:02;97863.16;;;6.04;65.82
14242;BME280;7205;50.864;12.766;2023-05-01T02:04:31;97858.03;;;6.02;65.86
14242;BME280;7205;50.864;12.766;2023-05-01T02:07:00;97854.03;;;5.98;65.76
14242;BME280;7205;50.864;12.766;2023-05-01T02:09:27;97852.53;;;5.96;65.66
14242;BME280;7205;50.864;12.766;2023-05-01T02:11:55;97845.78;;;5.93;66.16
14242;BME280;7205;50.864;12.766;2023-05-01T02:14:25;97841.50;;;5.92;66.30
14242;BME280;7205;50.864;12.766;2023-05-01T02:16:53;97840.69;;;5.92;66.44
14242;BME280;7205;50.864;12.766;2023-05-01T02:19:21;97831.19;;;5.91;66.04
14242;BME280;7205;50.864;12.766;2023-05-01T02:21:51;97834.91;;;5.88;66.36
14242;BME280;7205;50.864;12.766;2023-05-01T02:24:21;97828.16;;;5.86;66.14
14242;BME280;7205;50.864;12.766;2023-05-01T02:26:53;97827.47;;;5.84;66.75
14242;BME280;7205;50.864;12.766;2023-05-01T02:29:22;97819.75;;;5.82;66.47
14242;BME280;7205;50.864;12.766;2023-05-01T02:31:49;97819.03;;;5.80;66.57
14242;BME280;7205;50.864;12.766;2023-05-01T02:34:17;97815.56;;;5.80;66.80
14242;BME280;7205;50.864;12.766;2023-05-01T02:36:44;97806.91;;;5.79;67.09
14242;BME280;7205;50.864;12.766;2023-05-01T02:39:11;97815.56;;;5.80;67.48
14242;BME280;7205;50.864;12.766;2023-05-01T02:41:40;97804.28;;;5.79;67.21
14242;BME280;7205;50.864;12.766;2023-05-01T02:44:10;97802.47;;;5.80;67.52
14242;BME280;7205;50.864;12.766;2023-05-01T02:46:41;97802.47;;;5.80;67.46
14242;BME280;7205;50.864;12.766;2023-05-01T02:49:11;97804.16;;;5.81;67.71
14242;BME280;7205;50.864;12.766;2023-05-01T02:51:38;97803.06;;;5.83;67.80
14242;BME280;7205;50.864;12.766;2023-05-01T02:54:06;97796.03;;;5.84;67.68
14242;BME280;7205;50.864;12.766;2023-05-01T02:56:34;97793.56;;;5.82;67.89
14242;BME280;7205;50.864;12.766;2023-05-01T02:59:02;97792.56;;;5.83;67.55
14242;BME280;7205;50.864;12.766;2023-05-01T03:01:29;97795.19;;;5.83;67.67
14242;BME280;7205;50.864;12.766;2023-05-01T03:03:58;97782.94;;;5.84;67.65
14242;BME280;7205;50.864;12.766;2023-05-01T03:06:25;97784.72;;;5.83;68.02
14242;BME280;7205;50.864;12.766;2023-05-01T03:08:53;97785.69;;;5.82;68.20
14242;BME280;7205;50.864;12.766;2023-05-01T03:11:20;97772.59;;;5.82;67.99
14242;BME280;7205;50.864;12.766;2023-05-01T03:13:50;97775.06;;;5.84;68.45
14242;BME280;7205;50.864;12.766;2023-05-01T03:16:18;97770.88;;;5.81;68.08
14242;BME280;7205;50.864;12.766;2023-05-01T03:18:45;97768.28;;;5.81;68.18
14242;BME280;7205;50.864;12.766;2023-05-01T03:21:13;97769.97;;;5.82;68.70
14242;BME280;7205;50.864;12.766;2023-05-01T03:23:40;97758.78;;;5.80;68.41
14242;BME280;7205;50.864;12.766;2023-05-01T03:26:07;97760.28;;;5.83;68.83
14242;BME280;7205;50.864;12.766;2023-05-01T03:28:34;97747.31;;;5.81;68.98
14242;BME280;7205;50.864;12.766;2023-05-01T03:31:01;97752.31;;;5.84;68.50
14242;BME280;7205;50.864;12.766;2023-05-01T03:33:31;97750.50;;;5.85;68.71
14242;BME280;7205;50.864;12.766;2023-05-01T03:35:58;97743.34;;;5.87;68.76
14242;BME280;7205;50.864;12.766;2023-05-01T03:38:26;97737.94;;;5.88;68.77
14242;BME280;7205;50.864;12.766;2023-05-01T03:41:16;97740.41;;;5.90;68.48
14242;BME280;7205;50.864;12.766;2023-05-01T03:44:07;97738.50;;;5.92;68.91
14242;BME280;7205;50.864;12.766;2023-05-01T03:46:40;97743.59;;;5.93;68.66
14242;BME280;7205;50.864;12.766;2023-05-01T03:49:13;97742.63;;;5.94;68.68
14242;BME280;7205;50.864;12.766;2023-05-01T03:51:46;97741.66;;;5.95;68.85
14242;BME280;7205;50.864;12.766;2023-05-01T03:54:13;97740.66;;;5.96;68.74
14242;BME280;7205;50.864;12.766;2023-05-01T03:57:07;97736.94;;;5.99;68.67
14242;BME280;7205;50.864;12.766;2023-05-01T03:59:34;97748.78;;;6.03;68.91
14242;BME280;7205;50.864;12.766;2023-05-01T04:02:02;97745.75;;;6.07;68.61
14242;BME280;7205;50.864;12.766;2023-05-01T04:04:33;97748.22;;;6.09;68.92
14242;BME280;7205;50.864;12.766;2023-05-01T04:07:00;97750.41;;;6.13;68.61
14242;BME280;7205;50.864;12.766;2023-05-01T04:09:27;97744.72;;;6.18;68.97
14242;BME280;7205;50.864;12.766;2023-05-01T04:11:55;97741.69;;;6.22;69.12
14242;BME280;7205;50.864;12.766;2023-05-01T04:14:22;97745.47;;;6.28;68.81
14242;BME280;7205;50.864;12.766;2023-05-01T04:16:49;97748.50;;;6.33;68.87
14242;BME280;7205;50.864;12.766;2023-05-01T04:19:17;97743.53;;;6.40;68.86
14242;BME280;7205;50.864;12.766;2023-05-01T04:21:49;97750.63;;;6.47;68.51
14242;BME280;7205;50.864;12.766;2023-05-01T04:24:16;97750.88;;;6.54;68.82
14242;BME280;7205;50.864;12.766;2023-05-01T04:26:43;97747.38;;;6.63;68.94
14242;BME280;7205;50.864;12.766;2023-05-01T04:29:10;97743.03;;;6.71;68.70
14242;BME280;7205;50.864;12.766;2023-05-01T04:31:37;97752.47;;;6.82;68.55
14242;BME280;7205;50.864;12.766;2023-05-01T04:34:06;97748.13;;;6.90;68.50
14242;BME280;7205;50.864;12.766;2023-05-01T04:36:34;97746.41;;;6.99;68.15
14242;BME280;7205;50.864;12.766;2023-05-01T04:39:03;97737.66;;;7.08;68.22
14242;BME280;7205;50.864;12.766;2023-05-01T04:41:30;97729.84;;;7.16;67.90
14242;BME280;7205;50.864;12.766;2023-05-01T04:43:57;97746.31;;;7.26;67.46
14242;BME280;7205;50.864;12.766;2023-05-01T04:46:23;97742.94;;;7.33;67.79
14242;BME280;7205;50.864;12.766;2023-05-01T04:48:50;97742.84;;;7.43;67.82
14242;BME280;7205;50.864;12.766;2023-05-01T04:51:17;97737.66;;;7.51;67.52
14242;BME280;7205;50.864;12.766;2023-05-01T04:53:44;97742.81;;;7.60;67.35
14242;BME280;7205;50.864;12.766;2023-05-01T04:56:23;97733.16;;;7.69;67.09
14242;BME280;7205;50.864;12.766;2023-05-01T04:58:53;97732.94;;;7.80;66.87
14242;BME280;7205;50.864;12.766;2023-05-01T05:01:23;97731.00;;;7.90;67.01
14242;BME280;7205;50.864;12.766;2023-05-01T05:03:50;97723.84;;;8.00;67.01
14242;BME280;7205;50.864;12.766;2023-05-01T05:06:17;97723.38;;;8.13;66.67
14242;BME280;7205;50.864;12.766;2023-05-01T05:08:44;97722.31;;;8.23;66.22
14242;BME280;7205;50.864;12.766;2023-05-01T05:11:11;97721.22;;;8.34;66.64
14242;BME280;7205;50.864;12.766;2023-05-01T05:14:08;97730.28;;;8.47;66.41
14242;BME280;7205;50.864;12.766;2023-05-01T05:16:36;97723.06;;;8.57;66.54
14242;BME280;7205;50.864;12.766;2023-05-01T05:19:03;97728.72;;;8.70;66.35
14242;BME280;7205;50.864;12.766;2023-05-01T05:21:34;97729.06;;;8.83;66.68
14242;BME280;7205;50.864;12.766;2023-05-01T05:24:02;97736.31;;;8.98;66.17
14242;BME280;7205;50.864;12.766;2023-05-01T05:26:32;97726.94;;;9.11;66.19
14242;BME280;7205;50.864;12.766;2023-05-01T05:29:01;97725.66;;;9.23;66.65
14242;BME280;7205;50.864;12.766;2023-05-01T05:31:30;97726.81;;;9.37;65.76
14242;BME280;7205;50.864;12.766;2023-05-01T05:33:57;97720.03;;;9.50;66.55
14242;BME280;7205;50.864;12.766;2023-05-01T05:36:24;97717.72;;;9.63;66.54
14242;BME280;7205;50.864;12.766;2023-05-01T05:38:52;97717.84;;;9.78;66.46
14242;BME280;7205;50.864;12.766;2023-05-01T05:41:20;97713.19;;;9.88;66.12
14242;BME280;7205;50.864;12.766;2023-05-01T05:43:50;97703.13;;;9.99;65.24
14242;BME280;7205;50.864;12.766;2023-05-01T05:46:18;97713.00;;;10.13;65.05
14242;BME280;7205;50.864;12.766;2023-05-01T05:48:46;97707.19;;;10.26;65.17
14242;BME280;7205;50.864;12.766;2023-05-01T05:51:13;97713.88;;;10.37;64.66
14242;BME280;7205;50.864;12.766;2023-05-01T05:53:44;97705.59;;;10.48;63.77
14242;BME280;7205;50.864;12.766;2023-05-01T05:56:11;97709.50;;;10.60;63.97
14242;BME280;7205;50.864;12.766;2023-05-01T05:58:38;97706.47;;;10.71;64.14
14242;BME280;7205;50.864;12.766;2023-05-01T06:01:10;97706.69;;;10.84;63.64
14242;BME280;7205;50.864;12.766;2023-05-01T06:03:38;97697.19;;;10.97;63.48
14242;BME280;7205;50.864;12.766;2023-05-01T06:06:06;97701.91;;;11.10;63.95
14242;BME280;7205;50.864;12.766;2023-05-01T06:08:33;97694.03;;;11.24;63.09
14242;BME280;7205;50.864;12.766;2023-05-01T06:11:03;97692.41;;;11.38;62.02
14242;BME280;7205;50.864;12.766;2023-05-01T06:13:31;97698.94;;;11.50;61.17
14242;BME280;7205;50.864;12.766;2023-05-01T06:15:59;97681.47;;;11.64;60.29
14242;BME280;7205;50.864;12.766;2023-05-01T06:18:26;97692.25;;;11.77;59.81
14242;BME280;7205;50.864;12.766;2023-05-01T06:20:54;97686.69;;;11.86;58.86
14242;BME280;7205;50.864;12.766;2023-05-01T06:23:23;97682.13;;;11.95;58.19
14242;BME280;7205;50.864;12.766;2023-05-01T06:26:13;97686.50;;;12.02;57.71
14242;BME280;7205;50.864;12.766;2023-05-01T06:28:41;97680.47;;;12.08;57.30
14242;BME280;7205;50.864;12.766;2023-05-01T06:31:08;97678.94;;;12.14;56.43
14242;BME280;7205;50.864;12.766;2023-05-01T06:33:41;97685.66;;;12.16;56.25
14242;BME280;7205;50.864;12.766;2023-05-01T06:36:20;97679.22;;;12.19;55.28
14242;BME280;7205;50.864;12.766;2023-05-01T06:38:51;97678.00;;;12.21;54.74
14242;BME280;7205;50.864;12.766;2023-05-01T06:41:18;97683.09;;;12.23;54.41
14242;BME280;7205;50.864;12.766;2023-05-01T06:43:48;97682.13;;;12.24;53.68
14242;BME280;7205;50.864;12.766;2023-05-01T06:46:15;97686.22;;;12.26;53.37
14242;BME280;7205;50.864;12.766;2023-05-01T06:48:43;97682.53;;;12.27;53.44
14242;BME280;7205;50.864;12.766;2023-05-01T06:51:12;97682.38;;;12.29;52.87
14242;BME280;7205;50.864;12.766;2023-05-01T06:53:40;97685.84;;;12.29;52.52
14242;BME280;7205;50.864;12.766;2023-05-01T06:56:08;97683.84;;;12.31;51.67
14242;BME280;7205;50.864;12.766;2023-05-01T06:58:35;97682.66;;;12.34;51.71
14242;BME280;7205;50.864;12.766;2023-05-01T07:01:02;97676.34;;;12.35;51.25
14242;BME280;7205;50.864;12.766;2023-05-01T07:03:29;97677.78;;;12.37;50.93
14242;BME280;7205;50.864;12.766;2023-05-01T07:06:00;97674.78;;;12.40;51.23
14242;BME280;7205;50.864;12.766;2023-05-01T07:08:27;97668.94;;;12.45;51.23
14242;BME280;7205;50.864;12.766;2023-05-01T07:10:54;97675.50;;;12.49;50.80
14242;BME280;7205;50.864;12.766;2023-05-01T07:13:23;97667.00;;;12.53;50.81
14242;BME280;7205;50.864;12.766;2023-05-01T07:15:50;97670.72;;;12.59;50.83
14242;BME280;7205;50.864;12.766;2023-05-01T07:18:18;97669.13;;;12.64;50.93
14242;BME280;7205;50.864;12.766;2023-05-01T07:20:44;97668.22;;;12.72;50.76
14242;BME280;7205;50.864;12.766;2023-05-01T07:23:11;97658.13;;;12.82;50.83
14242;BME280;7205;50.864;12.766;2023-05-01T07:25:38;97664.78;;;12.93;51.53
14242;BME280;7205;50.864;12.766;2023-05-01T07:28:05;97669.78;;;13.02;51.19
14242;BME280;7205;50.864;12.766;2023-05-01T07:30:34;97667.81;;;13.11;50.25
14242;BME280;7205;50.864;12.766;2023-05-01T07:33:01;97663.22;;;13.19;50.47
14242;BME280;7205;50.864;12.766;2023-05-01T07:35:29;97666.38;;;13.29;50.43
14242;BME280;7205;50.864;12.766;2023-05-01T07:37:57;97668.88;;;13.37;50.27
14242;BME280;7205;50.864;12.766;2023-05-01T07:40:23;97661.34;;;13.41;49.83
14242;BME280;7205;50.864;12.766;2023-05-01T07:42:50;97656.09;;;13.47;49.34
14242;BME280;7205;50.864;12.766;2023-05-01T07:45:17;97658.78;;;13.54;49.05
14242;BME280;7205;50.864;12.766;2023-05-01T07:47:45;97659.88;;;13.59;48.83
14242;BME280;7205;50.864;12.766;2023-05-01T07:50:12;97653.97;;;13.64;48.88
14242;BME280;7205;50.864;12.766;2023-05-01T07:52:39;97653.19;;;13.70;49.16
14242;BME280;7205;50.864;12.766;2023-05-01T07:55:07;97648.75;;;13.77;48.98
14242;BME280;7205;50.864;12.766;2023-05-01T07:57:34;97652.47;;;13.82;49.39
14242;BME280;7205;50.864;12.766;2023-05-01T08:00:01;97643.91;;;13.87;48.98
14242;BME280;7205;50.864;12.766;2023-05-01T08:02:38;97643.94;;;13.94;49.04
14242;BME280;7205;50.864;12.766;2023-05-01T08:05:08;97643.59;;;14.03;48.83
14242;BME280;7205;50.864;12.766;2023-05-01T08:07:35;97639.94;;;14.11;48.98
14242;BME280;7205;50.864;12.766;2023-05-01T08:10:02;97638.78;;;14.20;49.04
14242;BME280;7205;50.864;12.766;2023-05-01T08:12:29;97635.97;;;14.28;48.81
14242;BME280;7205;50.864;12.766;2023-05-01T08:14:56;97637.63;;;14.35;48.19
14242;BME280;7205;50.864;12.766;2023-05-01T08:17:23;97625.78;;;14.38;48.32
14242;BME280;7205;50.864;12.766;2023-05-01T08:19:49;97634.41;;;14.46;48.07
14242;BME280;7205;50.864;12.766;2023-05-01T08:22:22;97624.63;;;14.53;48.15
14242;BME280;7205;50.864;12.766;2023-05-01T08:24:49;97627.09;;;14.61;48.22
14242;BME280;7205;50.864;12.766;2023-05-01T08:27:16;97618.09;;;14.69;48.34
14242;BME280;7205;50.864;12.766;2023-05-01T08:29:43;97620.78;;;14.75;47.73
14242;BME280;7205;50.864;12.766;2023-05-01T08:32:10;97617.94;;;14.83;47.44
14242;BME280;7205;50.864;12.766;2023-05-01T08:34:36;97620.41;;;14.91;47.51
14242;BME280;7205;50.864;12.766;2023-05-01T08:37:03;97612.44;;;14.98;47.06
14242;BME280;7205;50.864;12.766;2023-05-01T08:39:31;97622.03;;;15.05;46.59
14242;BME280;7205;50.864;12.766;2023-05-01T08:41:58;97612.03;;;15.14;46.86
14242;BME280;7205;50.864;12.766;2023-05-01T08:44:25;97613.47;;;15.23;46.83
14242;BME280;7205;50.864;12.766;2023-05-01T08:47:03;97607.31;;;15.29;46.65
14242;BME280;7205;50.864;12.766;2023-05-01T08:49:33;97614.91;;;15.39;46.90
14242;BME280;7205;50.864;12.766;2023-05-01T08:52:01;97595.88;;;15.48;46.95
14242;BME280;7205;50.864;12.766;2023-05-01T08:54:30;97601.81;;;15.57;46.67
14242;BME280;7205;50.864;12.766;2023-05-01T08:56:59;97599.75;;;15.65;46.45
14242;BME280;7205;50.864;12.766;2023-05-01T08:59:29;97591.53;;;15.73;46.15
14242;BME280;7205;50.864;12.766;2023-05-01T09:01:59;97593.34;;;15.79;45.12
14242;BME280;7205;50.864;12.766;2023-05-01T09:04:30;97593.31;;;15.86;44.93
14242;BME280;7205;50.864;12.766;2023-05-01T09:06:57;97576.75;;;15.90;44.29
14242;BME280;7205;50.864;12.766;2023-05-01T09:09:26;97584.69;;;15.97;44.03
14242;BME280;7205;50.864;12.766;2023-05-01T09:11:55;97585.72;;;16.02;44.02
14242;BME280;7205;50.864;12.766;2023-05-01T09:14:24;97582.41;;;16.07;43.60
14242;BME280;7205;50.864;12.766;2023-05-01T09:16:50;97576.66;;;16.10;43.55
14242;BME280;7205;50.864;12.766;2023-05-01T09:19:17;97567.81;;;16.16;42.53
14242;BME280;7205;50.864;12.766;2023-05-01T09:21:45;97576.19;;;16.19;42.28
14242;BME280;7205;50.864;12.766;2023-05-01T09:24:12;97582.94;;;16.28;42.48
14242;BME280;7205;50.864;12.766;2023-05-01T09:26:40;97569.53;;;16.42;42.76
14242;BME280;7205;50.864;12.766;2023-05-01T09:29:07;97571.13;;;16.56;42.88
14242;BME280;7205;50.864;12.766;2023-05-01T09:31:36;97563.06;;;16.69;42.50
14242;BME280;7205;50.864;12.766;2023-05-01T09:34:04;97568.06;;;16.83;42.04
14242;BME280;7205;50.864;12.766;2023-05-01T09:36:32;97562.63;;;16.96;41.48
14242;BME280;7205;50.864;12.766;2023-05-01T09:39:00;97557.59;;;17.13;41.54
14242;BME280;7205;50.864;12.766;2023-05-01T09:41:27;97549.03;;;17.29;41.56
14242;BME280;7205;50.864;12.766;2023-05-01T09:43:56;97557.31;;;17.45;40.76
14242;BME280;7205;50.864;12.766;2023-05-01T09:46:24;97545.47;;;17.60;39.20
14242;BME280;7205;50.864;12.766;2023-05-01T09:48:54;97547.16;;;17.72;39.31
14242;BME280;7205;50.864;12.766;2023-05-01T09:51:24;97550.75;;;17.84;39.46
14242;BME280;7205;50.864;12.766;2023-05-01T09:53:54;97547.47;;;18.00;39.66
14242;BME280;7205;50.864;12.766;2023-05-01T09:56:21;97544.66;;;18.13;39.15
14242;BME280;7205;50.864;12.766;2023-05-01T09:58:50;97533.41;;;18.23;38.77
14242;BME280;7205;50.864;12.766;2023-05-01T10:01:17;97535.41;;;18.27;38.65
14242;BME280;7205;50.864;12.766;2023-05-01T10:03:44;97525.28;;;18.29;38.12
14242;BME280;7205;50.864;12.766;2023-05-01T10:06:25;97517.50;;;18.28;37.40
14242;BME280;7205;50.864;12.766;2023-05-01T10:08:53;97522.84;;;18.28;37.23
14242;BME280;7205;50.864;12.766;2023-05-01T10:11:20;97527.38;;;18.27;37.25
14242;BME280;7205;50.864;12.766;2023-05-01T10:14:05;97516.78;;;18.21;37.43
14242;BME280;7205;50.864;12.766;2023-05-01T10:16:35;97513.50;;;18.19;37.42
14242;BME280;7205;50.864;12.766;2023-05-01T10:19:02;97519.06;;;18.17;37.43
14242;BME280;7205;50.864;12.766;2023-05-01T10:21:51;97516.50;;;18.11;37.34
14242;BME280;7205;50.864;12.766;2023-05-01T10:24:24;97507.47;;;18.12;37.77
14242;BME280;7205;50.864;12.766;2023-05-01T10:27:03;97508.84;;;18.14;37.79
14242;BME280;7205;50.864;12.766;2023-05-01T10:29:39;97509.22;;;18.18;37.50
14242;BME280;7205;50.864;12.766;2023-05-01T10:32:09;97501.19;;;18.18;37.15
14242;BME280;7205;50.864;12.766;2023-05-01T10:34:44;97499.22;;;18.13;36.83
14242;BME280;7205;50.864;12.766;2023-05-01T10:37:20;97503.72;;;18.13;36.92
14242;BME280;7205;50.864;12.766;2023-05-01T10:39:47;97485.03;;;18.13;36.84
14242;BME280;7205;50.864;12.766;2023-05-01T10:42:14;97485.38;;;18.16;37.06
14242;BME280;7205;50.864;12.766;2023-05-01T10:44:42;97481.19;;;18.20;36.45
14242;BME280;7205;50.864;12.766;2023-05-01T10:47:43;97469.47;;;18.21;36.32
14242;BME280;7205;50.864;12.766;2023-05-01T10:50:13;97472.28;;;18.26;35.64
14242;BME280;7205;50.864;12.766;2023-05-01T10:53:16;97471.59;;;18.31;35.78
14242;BME280;7205;50.864;12.766;2023-05-01T10:55:44;97472.84;;;18.46;35.41
14242;BME280;7205;50.864;12.766;2023-05-01T10:58:12;97466.59;;;18.64;35.67
14242;BME280;7205;50.864;12.766;2023-05-01T11:00:39;97471.63;;;18.84;35.98
14242;BME280;7205;50.864;12.766;2023-05-01T11:03:35;97463.38;;;18.97;34.52
14242;BME280;7205;50.864;12.766;2023-05-01T12:19:47;97353.13;;;19.74;32.40
14242;BME280;7205;50.864;12.766;2023-05-01T12:22:14;97352.63;;;19.77;32.83
14242;BME280;7205;50.864;12.766;2023-05-01T12:24:49;97350.78;;;19.77;32.70
14242;BME280;7205;50.864;12.766;2023-05-01T12:27:17;97344.91;;;19.80;33.06
14242;BME280;7205;50.864;12.766;2023-05-01T12:29:45;97356.31;;;19.87;33.16
14242;BME280;7205;50.864;12.766;2023-05-01T12:51:07;97324.50;;;21.12;32.53
14242;BME280;7205;50.864;12.766;2023-05-01T12:53:42;97314.38;;;21.19;31.84
14242;BME280;7205;50.864;12.766;2023-05-01T12:56:19;97310.16;;;21.23;31.37
14242;BME280;7205;50.864;12.766;2023-05-01T12:58:48;97317.94;;;21.25;31.54
14242;BME280;7205;50.864;12.766;2023-05-01T13:01:22;97307.19;;;21.25;31.28
14242;BME280;7205;50.864;12.766;2023-05-01T13:03:50;97303.19;;;21.27;31.13
14242;BME280;7205;50.864;12.766;2023-05-01T13:10:31;97294.56;;;21.25;30.83
14242;BME280;7205;50.864;12.766;2023-05-01T13:13:42;97297.50;;;21.24;31.58
14242;BME280;7205;50.864;12.766;2023-05-01T13:16:10;97292.94;;;21.24;31.48
14242;BME280;7205;50.864;12.766;2023-05-01T13:18:44;97290.78;;;21.21;31.84
14242;BME280;7205;50.864;12.766;2023-05-01T13:21:13;97284.91;;;21.24;31.88
14242;BME280;7205;50.864;12.766;2023-05-01T13:23:51;97288.34;;;21.20;31.82
14242;BME280;7205;50.864;12.766;2023-05-01T13:26:24;97284.06;;;21.24;31.96
14242;BME280;7205;50.864;12.766;2023-05-01T13:28:51;97280.09;;;21.26;31.85
14242;BME280;7205;50.864;12.766;2023-05-01T13:31:18;97282.00;;;21.31;31.90
14242;BME280;7205;50.864;12.766;2023-05-01T13:33:48;97276.44;;;21.37;31.61
14242;BME280;7205;50.864;12.766;2023-05-01T13:36:16;97278.13;;;21.43;31.18
14242;BME280;7205;50.864;12.766;2023-05-01T13:38:48;97275.25;;;21.50;31.66
14242;BME280;7205;50.864;12.766;2023-05-01T13:41:24;97271.53;;;21.56;31.20
14242;BME280;7205;50.864;12.766;2023-05-01T13:43:58;97272.97;;;21.63;31.67
14242;BME280;7205;50.864;12.766;2023-05-01T13:46:28;97276.88;;;21.77;31.72
14242;BME280;7205;50.864;12.766;2023-05-01T13:48:57;97276.97;;;21.87;31.07
14242;BME280;7205;50.864;12.766;2023-05-01T13:51:29;97273.59;;;21.97;31.29
14242;BME280;7205;50.864;12.766;2023-05-01T13:53:57;97267.72;;;22.05;30.93
14242;BME280;7205;50.864;12.766;2023-05-01T13:56:25;97269.13;;;22.12;30.65
14242;BME280;7205;50.864;12.766;2023-05-01T13:58:52;97266.72;;;22.16;30.84
14242;BME280;7205;50.864;12.766;2023-05-01T14:01:20;97263.78;;;22.17;30.95
14242;BME280;7205;50.864;12.766;2023-05-01T14:03:48;97263.81;;;22.22;31.01
14242;BME280;7205;50.864;12.766;2023-05-01T14:06:16;97259.84;;;22.30;31.44
14242;BME280;7205;50.864;12.766;2023-05-01T14:08:44;97264.69;;;22.28;31.18
14242;BME280;7205;50.864;12.766;2023-05-01T14:11:12;97269.19;;;22.22;31.73
14242;BME280;7205;50.864;12.766;2023-05-01T14:13:42;97267.28;;;22.18;32.04
14242;BME280;7205;50.864;12.766;2023-05-01T14:16:20;97263.22;;;22.15;32.22
14242;BME280;7205;50.864;12.766;2023-05-01T14:18:47;97257.63;;;22.17;32.23
14242;BME280;7205;50.864;12.766;2023-05-01T14:21:16;97261.09;;;22.17;32.45
14242;BME280;7205;50.864;12.766;2023-05-01T14:23:44;97266.50;;;22.22;32.85
14242;BME280;7205;50.864;12.766;2023-05-01T14:26:16;97268.16;;;22.23;33.01
14242;BME280;7205;50.864;12.766;2023-05-01T14:28:45;97265.41;;;22.18;33.03
14242;BME280;7205;50.864;12.766;2023-05-01T14:31:15;97256.50;;;22.13;32.79
14242;BME280;7205;50.864;12.766;2023-05-01T14:33:42;97253.16;;;22.01;32.99
14242;BME280;7205;50.864;12.766;2023-05-01T14:36:11;97254.94;;;21.90;32.89
14242;BME280;7205;50.864;12.766;2023-05-01T14:38:38;97260.00;;;21.82;33.38
14242;BME280;7205;50.864;12.766;2023-05-01T14:41:06;97251.81;;;21.72;33.34
14242;BME280;7205;50.864;12.766;2023-05-01T14:43:40;97246.31;;;21.57;33.27
14242;BME280;7205;50.864;12.766;2023-05-01T14:46:10;97252.06;;;21.44;34.00
14242;BME280;7205;50.864;12.766;2023-05-01T14:48:39;97250.09;;;21.34;34.80
14242;BME280;7205;50.864;12.766;2023-05-01T14:51:09;97255.34;;;21.24;34.84
14242;BME280;7205;50.864;12.766;2023-05-01T14:53:38;97257.91;;;21.14;35.24
14242;BME280;7205;50.864;12.766;2023-05-01T14:56:06;97260.78;;;21.07;36.04
14242;BME280;7205;50.864;12.766;2023-05-01T14:58:33;97261.81;;;21.01;36.12